createdAt,value
2022-10-02T00:00:06.355Z,10
2022-10-02T00:01:06.355Z,10
2022-10-02T00:02:06.356Z,10
2022-10-02T00:07:06.329Z,12
2022-10-02T00:08:06.329Z,12
2022-10-02T00:09:06.330Z,15
2022-10-02T00:10:06.358Z,15
2022-10-02T00:11:06.359Z,14
2022-10-02T00:12:06.359Z,10
2022-10-02T00:13:06.359Z,8
2022-10-02T00:14:06.359Z,8
2022-10-02T00:15:06.360Z,8
2022-10-02T00:16:06.360Z,10
2022-10-02T00:17:06.332Z,16
2022-10-02T00:18:06.333Z,11
2022-10-02T00:19:06.333Z,11
2022-10-02T00:20:06.333Z,13
2022-10-02T00:21:06.334Z,15
2022-10-02T00:22:06.334Z,15
2022-10-02T00:23:06.362Z,11
2022-10-02T00:24:06.363Z,13
2022-10-02T00:25:06.363Z,15
2022-10-02T00:26:06.363Z,15
2022-10-02T00:27:06.364Z,14
2022-10-02T00:28:06.364Z,11
2022-10-02T00:29:06.364Z,12
2022-10-02T00:30:06.364Z,10
2022-10-02T00:31:06.365Z,10
2022-10-02T00:32:06.337Z,12
2022-10-02T00:33:06.337Z,11
2022-10-02T00:34:06.338Z,10
2022-10-02T00:35:06.338Z,12
2022-10-02T00:36:06.338Z,11
2022-10-02T00:37:06.339Z,12
2022-10-02T00:38:06.367Z,16
2022-10-02T00:39:06.367Z,16
2022-10-02T00:40:06.368Z,14
2022-10-02T00:41:06.368Z,14
2022-10-02T00:42:06.368Z,17
2022-10-02T00:43:06.369Z,14
2022-10-02T00:44:06.369Z,13
2022-10-02T00:45:06.369Z,15
2022-10-02T00:46:06.369Z,13
2022-10-02T00:47:06.342Z,12
2022-10-02T00:48:06.342Z,12
2022-10-02T00:49:06.342Z,12
2022-10-02T00:50:06.343Z,13
2022-10-02T00:51:06.343Z,14
2022-10-02T00:52:06.343Z,14
2022-10-02T00:53:06.372Z,14
2022-10-02T00:54:06.372Z,12
2022-10-02T00:55:06.373Z,14
2022-10-02T00:56:06.372Z,13
2022-10-02T00:57:06.373Z,12
2022-10-02T00:58:06.373Z,9
2022-10-02T00:59:06.382Z,8
2022-10-02T01:00:06.374Z,8
2022-10-02T01:01:06.374Z,10
2022-10-02T01:02:06.375Z,10
2022-10-02T01:03:06.347Z,11
2022-10-02T01:04:06.347Z,13
2022-10-02T01:05:06.347Z,15
2022-10-02T01:06:06.348Z,14
2022-10-02T01:07:06.348Z,13
2022-10-02T01:08:06.376Z,13
2022-10-02T01:09:06.377Z,11
2022-10-02T01:10:06.377Z,13
2022-10-02T01:11:06.385Z,14
2022-10-02T01:12:06.378Z,13
2022-10-02T01:13:06.378Z,15
2022-10-02T01:14:06.378Z,15
2022-10-02T01:15:06.379Z,16
2022-10-02T01:16:06.379Z,10
2022-10-02T01:17:06.404Z,10
2022-10-02T01:18:06.351Z,9
2022-10-02T01:19:06.352Z,8
2022-10-02T01:20:06.352Z,8
2022-10-02T01:21:06.352Z,8
2022-10-02T01:22:06.353Z,8
2022-10-02T01:23:06.381Z,10
2022-10-02T01:24:06.381Z,10
2022-10-02T01:25:06.382Z,7
2022-10-02T01:26:06.390Z,8
2022-10-02T01:27:06.382Z,8
2022-10-02T01:28:06.383Z,8
2022-10-02T01:29:06.383Z,8
2022-10-02T01:30:06.383Z,7
2022-10-02T01:31:06.384Z,7
2022-10-02T01:32:06.384Z,8
2022-10-02T01:33:06.356Z,8
2022-10-02T01:34:06.356Z,10
2022-10-02T01:35:06.357Z,8
2022-10-02T01:36:06.357Z,9
2022-10-02T01:37:06.357Z,8
2022-10-02T01:38:06.358Z,12
2022-10-02T01:39:06.386Z,10
2022-10-02T01:40:06.387Z,8
2022-10-02T01:41:06.387Z,8
2022-10-02T01:42:06.387Z,9
2022-10-02T01:43:06.387Z,7
2022-10-02T01:44:06.388Z,8
2022-10-02T01:45:06.388Z,8
2022-10-02T01:46:06.388Z,7
2022-10-02T01:47:06.389Z,7
2022-10-02T01:48:06.361Z,8
2022-10-02T01:49:06.361Z,10
2022-10-02T01:50:06.361Z,8
2022-10-02T01:51:06.362Z,11
2022-10-02T01:52:06.362Z,10
2022-10-02T01:53:06.362Z,12
2022-10-02T01:54:06.391Z,10
2022-10-02T01:55:06.391Z,10
2022-10-02T01:56:06.391Z,10
2022-10-02T01:57:06.392Z,10
2022-10-02T01:58:06.392Z,10
2022-10-02T01:59:06.392Z,10
2022-10-02T02:00:06.393Z,10
2022-10-02T02:01:06.393Z,11
2022-10-02T02:02:06.393Z,10
2022-10-02T02:03:06.418Z,12
2022-10-02T02:04:06.366Z,9
2022-10-02T02:05:06.366Z,9
2022-10-02T02:06:06.366Z,9
2022-10-02T02:07:06.367Z,9
2022-10-02T02:08:06.367Z,9
2022-10-02T02:09:06.396Z,9
2022-10-02T02:10:06.396Z,9
2022-10-02T02:11:06.396Z,9
2022-10-02T02:12:06.404Z,9
2022-10-02T02:13:06.397Z,8
2022-10-02T02:14:06.397Z,7
2022-10-02T02:15:06.398Z,7
2022-10-02T02:16:06.398Z,5
2022-10-02T02:17:06.398Z,4
2022-10-02T02:18:06.463Z,4
2022-10-02T02:19:06.370Z,4
2022-10-02T02:20:06.371Z,4
2022-10-02T02:21:06.399Z,4
2022-10-02T02:22:06.371Z,4
2022-10-02T02:23:06.372Z,4
2022-10-02T02:24:06.409Z,5
2022-10-02T02:25:06.400Z,5
2022-10-02T02:26:06.401Z,6
2022-10-02T02:27:06.417Z,7
2022-10-02T02:28:06.402Z,8
2022-10-02T02:29:06.402Z,6
2022-10-02T02:30:06.402Z,6
2022-10-02T02:31:06.402Z,6
2022-10-02T02:32:06.403Z,7
2022-10-02T02:33:06.403Z,9
2022-10-02T02:34:06.375Z,9
2022-10-02T02:35:06.375Z,9
2022-10-02T02:36:06.376Z,8
2022-10-02T02:37:06.376Z,8
2022-10-02T02:38:06.376Z,8
2022-10-02T02:39:06.377Z,8
2022-10-02T02:40:06.405Z,9
2022-10-02T02:41:06.405Z,9
2022-10-02T02:42:06.406Z,9
2022-10-02T02:43:06.406Z,10
2022-10-02T02:44:06.406Z,9
2022-10-02T02:45:06.407Z,9
2022-10-02T02:46:06.407Z,8
2022-10-02T02:47:06.407Z,11
2022-10-02T02:48:06.408Z,10
2022-10-02T02:49:06.380Z,9
2022-10-02T02:50:06.380Z,9
2022-10-02T02:51:06.380Z,13
2022-10-02T02:52:06.381Z,12
2022-10-02T02:53:06.381Z,9
2022-10-02T02:54:06.381Z,8
2022-10-02T02:55:06.410Z,9
2022-10-02T02:56:06.410Z,9
2022-10-02T02:57:06.410Z,9
2022-10-02T02:58:06.411Z,9
2022-10-02T02:59:06.411Z,9
2022-10-02T03:00:06.411Z,10
2022-10-02T03:01:06.412Z,9
2022-10-02T03:02:06.412Z,10
2022-10-02T03:03:06.412Z,10
2022-10-02T03:04:06.477Z,9
2022-10-02T03:05:06.385Z,9
2022-10-02T03:06:06.385Z,10
2022-10-02T03:07:06.413Z,9
2022-10-02T03:08:06.386Z,10
2022-10-02T03:09:06.386Z,10
2022-10-02T03:10:06.424Z,10
2022-10-02T03:11:06.415Z,10
2022-10-02T03:12:06.415Z,11
2022-10-02T03:13:06.432Z,11
2022-10-02T03:14:06.416Z,10
2022-10-02T03:15:06.416Z,12
2022-10-02T03:16:06.416Z,14
2022-10-02T03:17:06.417Z,12
2022-10-02T03:18:06.417Z,12
2022-10-02T03:19:06.389Z,12
2022-10-02T03:20:06.390Z,11
2022-10-02T03:21:06.390Z,12
2022-10-02T03:22:06.390Z,9
2022-10-02T03:23:06.390Z,11
2022-10-02T03:24:06.391Z,8
2022-10-02T03:25:06.419Z,10
2022-10-02T03:26:06.420Z,7
2022-10-02T03:27:06.420Z,7
2022-10-02T03:28:06.420Z,7
2022-10-02T03:29:06.420Z,9
2022-10-02T03:30:06.421Z,8
2022-10-02T03:31:06.446Z,8
2022-10-02T03:32:06.421Z,7
2022-10-02T03:33:06.422Z,8
2022-10-02T03:34:06.422Z,8
2022-10-02T03:35:06.394Z,9
2022-10-02T03:36:06.395Z,8
2022-10-02T03:37:06.395Z,9
2022-10-02T03:38:06.395Z,9
2022-10-02T03:39:06.395Z,9
2022-10-02T03:40:06.396Z,8
2022-10-02T03:41:06.424Z,8
2022-10-02T03:42:06.424Z,9
2022-10-02T03:43:06.425Z,10
2022-10-02T03:44:06.425Z,11
2022-10-02T03:45:06.426Z,12
2022-10-02T03:46:06.426Z,11
2022-10-02T03:47:06.426Z,12
2022-10-02T03:48:06.426Z,12
2022-10-02T03:49:06.427Z,12
2022-10-02T03:50:06.399Z,13
2022-10-02T03:51:06.399Z,11
2022-10-02T03:52:06.400Z,13
2022-10-02T03:53:06.400Z,12
2022-10-02T03:54:06.400Z,11
2022-10-02T03:55:06.401Z,11
2022-10-02T03:56:06.429Z,11
2022-10-02T03:57:06.429Z,10
2022-10-02T03:58:06.430Z,13
2022-10-02T03:59:06.430Z,11
2022-10-02T04:00:06.430Z,11
2022-10-02T04:01:06.431Z,12
2022-10-02T04:02:06.431Z,12
2022-10-02T04:03:06.431Z,12
2022-10-02T04:04:06.432Z,13
2022-10-02T04:05:06.404Z,13
2022-10-02T04:06:06.404Z,11
2022-10-02T04:07:06.404Z,11
2022-10-02T04:08:06.405Z,11
2022-10-02T04:09:06.405Z,12
2022-10-02T04:10:06.405Z,12
2022-10-02T04:11:06.433Z,10
2022-10-02T04:12:06.434Z,10
2022-10-02T04:13:06.434Z,15
2022-10-02T04:14:06.435Z,11
2022-10-02T04:15:07.622Z,12
2022-10-02T04:16:06.435Z,11
2022-10-02T04:17:06.436Z,9
2022-10-02T04:18:06.436Z,9
2022-10-02T04:19:06.436Z,8
2022-10-02T04:20:06.408Z,9
2022-10-02T04:21:06.409Z,9
2022-10-02T04:22:06.409Z,11
2022-10-02T04:23:06.409Z,12
2022-10-02T04:24:06.410Z,9
2022-10-02T04:25:06.410Z,14
2022-10-02T04:26:06.438Z,12
2022-10-02T04:27:06.439Z,12
2022-10-02T04:28:06.439Z,16
2022-10-02T04:29:06.439Z,13
2022-10-02T04:30:06.440Z,15
2022-10-02T04:31:06.440Z,15
2022-10-02T04:32:06.440Z,12
2022-10-02T04:33:06.441Z,12
2022-10-02T04:34:06.441Z,11
2022-10-02T04:35:06.413Z,10
2022-10-02T04:36:06.413Z,9
2022-10-02T04:37:06.414Z,10
2022-10-02T04:38:06.414Z,6
2022-10-02T04:39:06.414Z,5
2022-10-02T04:40:06.415Z,6
2022-10-02T04:41:06.443Z,7
2022-10-02T04:42:06.443Z,5
2022-10-02T04:43:06.444Z,5
2022-10-02T04:44:06.444Z,6
2022-10-02T04:45:06.444Z,6
2022-10-02T04:46:06.445Z,3
2022-10-02T04:47:06.445Z,6
2022-10-02T04:48:06.445Z,5
2022-10-02T04:49:06.446Z,5
2022-10-02T04:50:06.455Z,5
2022-10-02T04:51:06.418Z,7
2022-10-02T04:52:06.418Z,7
2022-10-02T04:53:06.419Z,8
2022-10-02T04:54:06.419Z,8
2022-10-02T04:55:06.419Z,8
2022-10-02T04:56:06.448Z,8
2022-10-02T04:57:06.448Z,8
2022-10-02T04:58:06.448Z,11
2022-10-02T04:59:06.457Z,11
2022-10-02T05:00:06.449Z,10
2022-10-02T05:01:06.449Z,13
2022-10-02T05:02:06.450Z,9
2022-10-02T05:03:06.450Z,11
2022-10-02T05:04:06.450Z,11
2022-10-02T05:05:06.451Z,10
2022-10-02T05:06:06.423Z,10
2022-10-02T05:07:06.423Z,11
2022-10-02T05:08:06.423Z,11
2022-10-02T05:09:06.424Z,9
2022-10-02T05:10:06.424Z,9
2022-10-02T05:11:06.424Z,9
2022-10-02T05:12:06.453Z,9
2022-10-02T05:13:06.453Z,10
2022-10-02T05:14:06.453Z,9
2022-10-02T05:15:13.612Z,10
2022-10-02T05:16:06.454Z,8
2022-10-02T05:17:06.463Z,8
2022-10-02T05:18:06.455Z,9
2022-10-02T05:19:06.455Z,9
2022-10-02T05:20:06.455Z,8
2022-10-02T05:21:06.428Z,8
2022-10-02T05:22:06.428Z,8
2022-10-02T05:23:06.428Z,8
2022-10-02T05:24:06.428Z,8
2022-10-02T05:25:06.429Z,10
2022-10-02T05:26:06.429Z,8
2022-10-02T05:27:06.458Z,10
2022-10-02T05:28:06.458Z,7
2022-10-02T05:29:06.458Z,10
2022-10-02T05:30:06.458Z,11
2022-10-02T05:31:06.459Z,14
2022-10-02T05:32:06.459Z,11
2022-10-02T05:33:06.459Z,10
2022-10-02T05:34:06.460Z,10
2022-10-02T05:35:06.460Z,8
2022-10-02T05:36:06.432Z,10
2022-10-02T05:37:06.433Z,7
2022-10-02T05:38:06.433Z,9
2022-10-02T05:39:06.433Z,8
2022-10-02T05:40:06.433Z,10
2022-10-02T05:41:06.434Z,7
2022-10-02T05:42:06.462Z,7
2022-10-02T05:43:06.462Z,8
2022-10-02T05:44:06.463Z,8
2022-10-02T05:45:06.463Z,8
2022-10-02T05:46:06.463Z,7
2022-10-02T05:47:06.464Z,8
2022-10-02T05:48:06.464Z,8
2022-10-02T05:49:06.464Z,8
2022-10-02T05:50:06.465Z,8
2022-10-02T05:51:06.437Z,7
2022-10-02T05:52:06.437Z,12
2022-10-02T05:53:06.438Z,12
2022-10-02T05:54:06.438Z,10
2022-10-02T05:55:06.438Z,11
2022-10-02T05:56:06.439Z,10
2022-10-02T05:57:06.467Z,12
2022-10-02T05:58:06.467Z,13
2022-10-02T05:59:06.467Z,13
2022-10-02T06:00:06.468Z,12
2022-10-02T06:01:06.468Z,13
2022-10-02T06:02:06.469Z,12
2022-10-02T06:03:06.533Z,12
2022-10-02T06:04:06.469Z,12
2022-10-02T06:05:06.469Z,12
2022-10-02T06:06:06.479Z,9
2022-10-02T06:07:06.442Z,9
2022-10-02T06:08:06.442Z,8
2022-10-02T06:09:06.443Z,8
2022-10-02T06:10:06.443Z,8
2022-10-02T06:11:06.443Z,10
2022-10-02T06:12:06.472Z,9
2022-10-02T06:13:06.472Z,8
2022-10-02T06:14:06.472Z,8
2022-10-02T06:15:11.384Z,8
2022-10-02T06:16:06.473Z,5
2022-10-02T06:17:06.473Z,5
2022-10-02T06:18:06.474Z,5
2022-10-02T06:19:06.474Z,5
2022-10-02T06:20:06.474Z,5
2022-10-02T06:21:06.539Z,6
2022-10-02T06:22:06.447Z,5
2022-10-02T06:23:06.447Z,9
2022-10-02T06:24:06.475Z,11
2022-10-02T06:25:06.448Z,16
2022-10-02T06:26:06.448Z,10
2022-10-02T06:27:06.487Z,12
2022-10-02T06:28:06.476Z,13
2022-10-02T06:29:06.477Z,14
2022-10-02T06:30:06.493Z,11
2022-10-02T06:31:06.478Z,13
2022-10-02T06:32:06.478Z,12
2022-10-02T06:33:06.478Z,12
2022-10-02T06:34:06.479Z,16
2022-10-02T06:35:06.479Z,14
2022-10-02T06:36:06.479Z,13
2022-10-02T06:37:06.451Z,14
2022-10-02T06:38:06.452Z,14
2022-10-02T06:39:06.452Z,13
2022-10-02T06:40:06.452Z,12
2022-10-02T06:41:06.453Z,14
2022-10-02T06:42:06.453Z,15
2022-10-02T06:43:06.482Z,15
2022-10-02T06:44:06.482Z,14
2022-10-02T06:45:06.482Z,14
2022-10-02T06:46:06.482Z,10
2022-10-02T06:47:06.483Z,10
2022-10-02T06:48:06.483Z,11
2022-10-02T06:49:06.483Z,10
2022-10-02T06:50:06.484Z,9
2022-10-02T06:51:06.484Z,10
2022-10-02T06:52:06.456Z,12
2022-10-02T06:53:06.456Z,10
2022-10-02T06:54:06.457Z,10
2022-10-02T06:55:06.457Z,10
2022-10-02T06:56:06.457Z,9
2022-10-02T06:57:06.458Z,8
2022-10-02T06:58:06.486Z,7
2022-10-02T06:59:06.487Z,12
2022-10-02T07:00:06.487Z,13
2022-10-02T07:01:06.487Z,13
2022-10-02T07:02:06.487Z,18
2022-10-02T07:03:06.488Z,16
2022-10-02T07:04:06.488Z,16
2022-10-02T07:05:06.488Z,14
2022-10-02T07:06:06.489Z,13
2022-10-02T07:07:06.554Z,11
2022-10-02T07:08:06.461Z,11
2022-10-02T07:09:06.461Z,11
2022-10-02T07:10:06.489Z,11
2022-10-02T07:11:06.462Z,11
2022-10-02T07:12:06.462Z,11
2022-10-02T07:13:06.501Z,11
2022-10-02T07:14:06.491Z,10
2022-10-02T07:15:06.491Z,11
2022-10-02T07:16:06.492Z,12
2022-10-02T07:17:06.492Z,12
2022-10-02T07:18:06.492Z,10
2022-10-02T07:19:06.493Z,15
2022-10-02T07:20:06.493Z,11
2022-10-02T07:21:06.493Z,10
2022-10-02T07:22:06.503Z,19
2022-10-02T07:23:06.466Z,17
2022-10-02T07:24:06.466Z,13
2022-10-02T07:25:06.466Z,17
2022-10-02T07:26:06.467Z,12
2022-10-02T07:27:06.467Z,12
2022-10-02T07:28:06.496Z,15
2022-10-02T07:29:06.496Z,15
2022-10-02T07:30:06.496Z,15
2022-10-02T07:31:06.496Z,13
2022-10-02T07:32:06.497Z,11
2022-10-02T07:33:06.497Z,12
2022-10-02T07:34:06.497Z,11
2022-10-02T07:35:06.498Z,9
2022-10-02T07:36:06.498Z,9
2022-10-02T07:37:06.470Z,6
2022-10-02T07:38:06.470Z,6
2022-10-02T07:39:06.471Z,6
2022-10-02T07:40:06.471Z,4
2022-10-02T07:42:06.472Z,6
2022-10-02T07:43:06.500Z,8
2022-10-02T07:44:06.500Z,7
2022-10-02T07:45:06.501Z,13
2022-10-02T07:46:06.501Z,6
2022-10-02T07:47:06.502Z,4
2022-10-02T07:48:06.502Z,7
2022-10-02T07:49:06.502Z,8
2022-10-02T07:50:06.502Z,7
2022-10-02T07:51:06.503Z,6
2022-10-02T07:52:06.475Z,8
2022-10-02T07:53:06.475Z,10
2022-10-02T07:54:06.476Z,7
2022-10-02T07:55:06.476Z,9
2022-10-02T07:56:06.476Z,12
2022-10-02T07:57:06.477Z,13
2022-10-02T07:58:06.505Z,14
2022-10-02T07:59:06.505Z,14
2022-10-02T08:00:06.506Z,17
2022-10-02T08:01:06.506Z,17
2022-10-02T08:02:06.506Z,20
2022-10-02T08:03:06.507Z,20
2022-10-02T08:04:06.524Z,14
2022-10-02T08:05:06.507Z,13
2022-10-02T08:06:06.508Z,17
2022-10-02T08:07:06.517Z,14
2022-10-02T08:08:06.480Z,17
2022-10-02T08:09:06.480Z,18
2022-10-02T08:10:06.481Z,15
2022-10-02T08:11:06.481Z,14
2022-10-02T08:12:06.481Z,12
2022-10-02T08:13:06.510Z,13
2022-10-02T08:14:06.510Z,12
2022-10-02T08:15:06.511Z,14
2022-10-02T08:16:06.519Z,14
2022-10-02T08:17:06.511Z,17
2022-10-02T08:18:06.511Z,15
2022-10-02T08:19:06.512Z,14
2022-10-02T08:20:06.512Z,13
2022-10-02T08:21:06.512Z,15
2022-10-02T08:22:06.513Z,11
2022-10-02T08:23:06.485Z,12
2022-10-02T08:24:06.485Z,13
2022-10-02T08:25:06.486Z,12
2022-10-02T08:26:06.486Z,13
2022-10-02T08:27:06.486Z,13
2022-10-02T08:28:06.514Z,10
2022-10-02T08:29:06.515Z,10
2022-10-02T08:30:06.515Z,10
2022-10-02T08:31:06.515Z,10
2022-10-02T08:32:06.516Z,10
2022-10-02T08:33:06.516Z,16
2022-10-02T08:34:06.525Z,17
2022-10-02T08:35:06.517Z,16
2022-10-02T08:36:06.517Z,16
2022-10-02T08:37:06.517Z,18
2022-10-02T08:38:06.490Z,18
2022-10-02T08:39:06.490Z,16
2022-10-02T08:40:06.490Z,18
2022-10-02T08:41:06.491Z,16
2022-10-02T08:42:06.491Z,18
2022-10-02T08:43:06.491Z,15
2022-10-02T08:44:06.520Z,13
2022-10-02T08:45:06.520Z,17
2022-10-02T08:46:06.520Z,14
2022-10-02T08:47:06.521Z,14
2022-10-02T08:48:06.521Z,12
2022-10-02T08:49:06.521Z,10
2022-10-02T08:50:06.522Z,10
2022-10-02T08:51:06.522Z,10
2022-10-02T08:52:06.522Z,9
2022-10-02T08:53:06.495Z,13
2022-10-02T08:54:06.495Z,9
2022-10-02T08:55:06.495Z,12
2022-10-02T08:56:06.495Z,9
2022-10-02T08:58:06.496Z,15
2022-10-02T08:59:06.524Z,11
2022-10-02T09:00:06.525Z,16
2022-10-02T09:01:06.525Z,13
2022-10-02T09:02:06.525Z,10
2022-10-02T09:03:06.526Z,9
2022-10-02T09:04:06.526Z,8
2022-10-02T09:05:06.527Z,9
2022-10-02T09:06:06.527Z,7
2022-10-02T09:07:06.527Z,10
2022-10-02T09:08:06.499Z,10
2022-10-02T09:09:06.500Z,8
2022-10-02T09:10:06.500Z,7
2022-10-02T09:11:06.500Z,8
2022-10-02T09:12:06.501Z,11
2022-10-02T09:13:06.501Z,11
2022-10-02T09:14:06.529Z,12
2022-10-02T09:15:06.530Z,14
2022-10-02T09:16:06.530Z,13
2022-10-02T09:17:06.530Z,10
2022-10-02T09:18:06.531Z,16
2022-10-02T09:19:06.531Z,14
2022-10-02T09:20:06.596Z,12
2022-10-02T09:21:06.532Z,11
2022-10-02T09:22:06.532Z,11
2022-10-02T09:23:06.542Z,11
2022-10-02T09:24:06.505Z,10
2022-10-02T09:25:06.505Z,14
2022-10-02T09:26:06.505Z,16
2022-10-02T09:27:06.506Z,20
2022-10-02T09:28:06.506Z,16
2022-10-02T09:29:06.534Z,11
2022-10-02T09:30:06.535Z,13
2022-10-02T09:31:06.535Z,14
2022-10-02T09:32:06.535Z,15
2022-10-02T09:33:06.535Z,14
2022-10-02T09:34:06.536Z,12
2022-10-02T09:35:06.536Z,11
2022-10-02T09:36:06.537Z,14
2022-10-02T09:37:06.537Z,13
2022-10-02T09:38:06.562Z,17
2022-10-02T09:39:06.509Z,12
2022-10-02T09:40:06.510Z,12
2022-10-02T09:41:06.510Z,13
2022-10-02T09:42:06.510Z,14
2022-10-02T09:43:06.511Z,17
2022-10-02T09:44:06.539Z,25
2022-10-02T09:45:06.539Z,16
2022-10-02T09:46:06.540Z,12
2022-10-02T09:47:06.549Z,12
2022-10-02T09:48:06.540Z,20
2022-10-02T09:49:06.541Z,20
2022-10-02T09:50:06.541Z,18
2022-10-02T09:51:06.541Z,12
2022-10-02T09:52:06.542Z,11
2022-10-02T09:53:06.542Z,14
2022-10-02T09:54:06.514Z,14
2022-10-02T09:55:06.515Z,13
2022-10-02T09:56:06.515Z,10
2022-10-02T09:57:06.515Z,10
2022-10-02T09:58:06.516Z,9
2022-10-02T09:59:06.516Z,9
2022-10-02T10:00:06.544Z,12
2022-10-02T10:01:06.545Z,14
2022-10-02T10:02:06.545Z,12
2022-10-02T10:03:06.545Z,18
2022-10-02T10:04:06.546Z,14
2022-10-02T10:05:06.546Z,13
2022-10-02T10:06:06.546Z,13
2022-10-02T10:07:06.547Z,15
2022-10-02T10:08:06.547Z,16
2022-10-02T10:09:06.519Z,16
2022-10-02T10:10:06.519Z,17
2022-10-02T10:11:06.520Z,15
2022-10-02T10:12:06.520Z,17
2022-10-02T10:13:06.520Z,15
2022-10-02T10:14:06.521Z,14
2022-10-02T10:15:06.549Z,12
2022-10-02T10:16:06.549Z,11
2022-10-02T10:17:06.550Z,11
2022-10-02T10:18:06.550Z,15
2022-10-02T10:19:06.551Z,17
2022-10-02T10:20:06.551Z,18
2022-10-02T10:21:06.551Z,17
2022-10-02T10:22:06.552Z,16
2022-10-02T10:23:06.552Z,16
2022-10-02T10:24:06.577Z,15
2022-10-02T10:25:06.524Z,20
2022-10-02T10:26:06.525Z,14
2022-10-02T10:27:06.525Z,16
2022-10-02T10:28:06.525Z,14
2022-10-02T10:29:06.526Z,19
2022-10-02T10:30:06.554Z,20
2022-10-02T10:31:06.555Z,20
2022-10-02T10:32:06.555Z,21
2022-10-02T10:33:06.619Z,21
2022-10-02T10:34:06.555Z,19
2022-10-02T10:35:06.556Z,17
2022-10-02T10:36:06.556Z,18
2022-10-02T10:37:06.556Z,18
2022-10-02T10:38:06.557Z,12
2022-10-02T10:39:06.529Z,13
2022-10-02T10:40:06.529Z,13
2022-10-02T10:41:06.530Z,19
2022-10-02T10:42:06.530Z,21
2022-10-02T10:43:06.530Z,20
2022-10-02T10:44:06.531Z,30
2022-10-02T10:45:06.559Z,33
2022-10-02T10:46:06.559Z,19
2022-10-02T10:47:06.560Z,14
2022-10-02T10:48:06.560Z,14
2022-10-02T10:49:06.560Z,16
2022-10-02T10:50:06.561Z,18
2022-10-02T10:51:06.561Z,14
2022-10-02T10:52:06.561Z,14
2022-10-02T10:53:06.562Z,15
2022-10-02T10:54:06.571Z,16
2022-10-02T10:55:06.534Z,15
2022-10-02T10:56:06.535Z,15
2022-10-02T10:58:06.535Z,13
2022-10-02T10:59:06.536Z,14
2022-10-02T11:00:06.564Z,14
2022-10-02T11:01:06.564Z,13
2022-10-02T11:02:06.564Z,15
2022-10-02T11:03:06.573Z,17
2022-10-02T11:04:06.565Z,21
2022-10-02T11:05:06.565Z,23
2022-10-02T11:06:06.566Z,20
2022-10-02T11:07:06.566Z,19
2022-10-02T11:08:06.567Z,14
2022-10-02T11:09:06.567Z,16
2022-10-02T11:10:06.539Z,11
2022-10-02T11:11:06.539Z,19
2022-10-02T11:12:06.540Z,22
2022-10-02T11:13:06.540Z,22
2022-10-02T11:14:06.540Z,19
2022-10-02T11:15:06.541Z,19
2022-10-02T11:16:06.569Z,21
2022-10-02T11:17:06.570Z,21
2022-10-02T11:18:06.570Z,18
2022-10-02T11:19:06.570Z,19
2022-10-02T11:20:06.570Z,17
2022-10-02T11:21:06.571Z,16
2022-10-02T11:22:06.571Z,18
2022-10-02T11:23:06.572Z,20
2022-10-02T11:24:06.572Z,22
2022-10-02T11:25:06.544Z,18
2022-10-02T11:26:06.544Z,22
2022-10-02T11:27:06.545Z,23
2022-10-02T11:28:06.545Z,21
2022-10-02T11:29:06.545Z,16
2022-10-02T11:30:06.546Z,18
2022-10-02T11:31:06.574Z,15
2022-10-02T11:32:06.575Z,14
2022-10-02T11:33:06.575Z,18
2022-10-02T11:34:06.575Z,15
2022-10-02T11:35:06.575Z,17
2022-10-02T11:36:06.576Z,19
2022-10-02T11:37:06.576Z,26
2022-10-02T11:38:06.576Z,34
2022-10-02T11:39:06.577Z,29
2022-10-02T11:40:06.549Z,26
2022-10-02T11:41:06.549Z,21
2022-10-02T11:42:06.549Z,18
2022-10-02T11:43:06.550Z,18
2022-10-02T11:44:06.550Z,21
2022-10-02T11:45:06.550Z,18
2022-10-02T11:46:06.579Z,22
2022-10-02T11:47:06.579Z,22
2022-10-02T11:48:06.580Z,23
2022-10-02T11:49:06.580Z,23
2022-10-02T11:50:06.580Z,25
2022-10-02T11:51:06.580Z,26
2022-10-02T11:52:06.581Z,18
2022-10-02T11:53:06.581Z,20
2022-10-02T11:54:06.582Z,14
2022-10-02T11:55:06.607Z,17
2022-10-02T11:56:06.554Z,20
2022-10-02T11:57:06.554Z,21
2022-10-02T11:58:06.555Z,22
2022-10-02T11:59:06.555Z,23
2022-10-02T12:00:06.555Z,23
2022-10-02T12:01:06.584Z,17
2022-10-02T12:02:06.584Z,19
2022-10-02T12:03:06.585Z,19
2022-10-02T12:04:06.593Z,15
2022-10-02T12:05:06.585Z,16
2022-10-02T12:06:06.586Z,15
2022-10-02T12:07:06.586Z,17
2022-10-02T12:08:06.586Z,21
2022-10-02T12:09:06.587Z,19
2022-10-02T12:10:06.587Z,18
2022-10-02T12:11:06.559Z,17
2022-10-02T12:12:06.559Z,27
2022-10-02T12:13:06.560Z,23
2022-10-02T12:14:06.560Z,19
2022-10-02T12:15:06.560Z,21
2022-10-02T12:16:06.561Z,20
2022-10-02T12:17:06.589Z,20
2022-10-02T12:18:06.590Z,20
2022-10-02T12:19:06.590Z,20
2022-10-02T12:20:06.590Z,22
2022-10-02T12:21:06.590Z,16
2022-10-02T12:23:06.591Z,14
2022-10-02T12:24:06.591Z,15
2022-10-02T12:25:06.592Z,13
2022-10-02T12:26:06.564Z,14
2022-10-02T12:27:06.564Z,19
2022-10-02T12:28:06.565Z,18
2022-10-02T12:29:06.565Z,17
2022-10-02T12:30:06.565Z,25
2022-10-02T12:31:06.566Z,21
2022-10-02T12:32:06.594Z,16
2022-10-02T12:33:06.594Z,15
2022-10-02T12:34:06.594Z,15
2022-10-02T12:35:06.595Z,20
2022-10-02T12:36:07.622Z,22
2022-10-02T12:37:06.596Z,21
2022-10-02T12:38:06.596Z,23
2022-10-02T12:39:06.596Z,24
2022-10-02T12:40:06.597Z,18
2022-10-02T12:41:06.569Z,24
2022-10-02T12:42:06.569Z,26
2022-10-02T12:43:06.570Z,22
2022-10-02T12:44:06.570Z,24
2022-10-02T12:45:06.570Z,20
2022-10-02T12:46:06.571Z,28
2022-10-02T12:47:06.599Z,34
2022-10-02T12:48:06.600Z,31
2022-10-02T12:49:06.600Z,22
2022-10-02T12:50:06.600Z,28
2022-10-02T12:51:06.600Z,22
2022-10-02T12:52:06.601Z,26
2022-10-02T12:53:06.601Z,27
2022-10-02T12:54:06.601Z,26
2022-10-02T12:55:06.602Z,18
2022-10-02T12:56:06.574Z,18
2022-10-02T12:57:06.574Z,19
2022-10-02T12:58:06.575Z,18
2022-10-02T12:59:06.575Z,22
2022-10-02T13:00:06.575Z,24
2022-10-02T13:01:06.576Z,24
2022-10-02T13:02:06.604Z,16
2022-10-02T13:03:06.604Z,20
2022-10-02T13:04:06.605Z,22
2022-10-02T13:05:06.605Z,18
2022-10-02T13:06:06.605Z,19
2022-10-02T13:07:06.606Z,15
2022-10-02T13:08:06.671Z,22
2022-10-02T13:09:06.606Z,22
2022-10-02T13:10:06.607Z,21
2022-10-02T13:11:06.616Z,25
2022-10-02T13:12:06.579Z,24
2022-10-02T13:13:06.580Z,26
2022-10-02T13:14:06.580Z,23
2022-10-02T13:15:06.580Z,27
2022-10-02T13:16:06.581Z,23
2022-10-02T13:17:06.609Z,14
2022-10-02T13:18:06.610Z,14
2022-10-02T13:19:06.610Z,17
2022-10-02T13:20:06.618Z,19
2022-10-02T13:21:06.610Z,21
2022-10-02T13:22:06.611Z,17
2022-10-02T13:23:06.611Z,18
2022-10-02T13:24:06.612Z,22
2022-10-02T13:25:06.612Z,21
2022-10-02T13:26:06.612Z,22
2022-10-02T13:27:06.584Z,21
2022-10-02T13:28:06.585Z,26
2022-10-02T13:29:06.585Z,24
2022-10-02T13:30:06.585Z,31
2022-10-02T13:31:06.586Z,28
2022-10-02T13:32:06.586Z,30
2022-10-02T13:33:06.615Z,22
2022-10-02T13:34:06.615Z,22
2022-10-02T13:35:06.615Z,32
2022-10-02T13:36:13.611Z,19
2022-10-02T13:37:06.616Z,18
2022-10-02T13:38:06.625Z,16
2022-10-02T13:39:06.616Z,15
2022-10-02T13:40:06.617Z,13
2022-10-02T13:41:06.617Z,13
2022-10-02T13:42:06.589Z,25
2022-10-02T13:43:06.590Z,24
2022-10-02T13:44:06.590Z,22
2022-10-02T13:45:06.590Z,17
2022-10-02T13:46:06.591Z,18
2022-10-02T13:47:06.591Z,13
2022-10-02T13:48:06.619Z,21
2022-10-02T13:49:06.620Z,17
2022-10-02T13:50:06.620Z,21
2022-10-02T13:51:06.621Z,19
2022-10-02T13:52:06.621Z,24
2022-10-02T13:53:06.621Z,20
2022-10-02T13:54:06.621Z,15
2022-10-02T13:55:06.622Z,16
2022-10-02T13:56:06.622Z,19
2022-10-02T13:57:06.594Z,15
2022-10-02T13:58:06.595Z,20
2022-10-02T13:59:06.595Z,16
2022-10-02T14:00:06.595Z,19
2022-10-02T14:01:06.596Z,18
2022-10-02T14:02:06.596Z,17
2022-10-02T14:03:06.624Z,14
2022-10-02T14:04:06.625Z,9
2022-10-02T14:05:06.625Z,10
2022-10-02T14:06:06.626Z,8
2022-10-02T14:07:06.626Z,10
2022-10-02T14:08:06.626Z,10
2022-10-02T14:09:06.627Z,12
2022-10-02T14:10:06.627Z,12
2022-10-02T14:11:06.627Z,8
2022-10-02T14:12:06.599Z,9
2022-10-02T14:13:06.600Z,9
2022-10-02T14:14:06.600Z,10
2022-10-02T14:15:06.600Z,17
2022-10-02T14:16:06.601Z,10
2022-10-02T14:17:06.601Z,11
2022-10-02T14:18:06.630Z,16
2022-10-02T14:19:06.630Z,15
2022-10-02T14:20:06.630Z,18
2022-10-02T14:21:06.631Z,17
2022-10-02T14:22:06.631Z,16
2022-10-02T14:23:06.631Z,14
2022-10-02T14:24:06.632Z,19
2022-10-02T14:25:06.632Z,21
2022-10-02T14:26:06.632Z,13
2022-10-02T14:27:06.604Z,14
2022-10-02T14:28:06.605Z,17
2022-10-02T14:29:06.605Z,14
2022-10-02T14:30:06.606Z,14
2022-10-02T14:31:06.606Z,11